createdAt,value
2017-05-24T00:00:12.953Z,1010.61
2017-05-24T00:00:53.443Z,1010.62
2017-05-24T00:01:33.982Z,1010.64
2017-05-24T00:02:14.469Z,1010.64
2017-05-24T00:02:54.968Z,1010.65
2017-05-24T00:03:35.465Z,1010.62
2017-05-24T00:04:15.951Z,1010.62
2017-05-24T00:04:56.444Z,1010.64
2017-05-24T00:05:36.924Z,1010.61
2017-05-24T00:06:18.058Z,1010.62
2017-05-24T00:06:58.551Z,1010.65
2017-05-24T00:07:39.773Z,1010.63
2017-05-24T00:08:20.265Z,1010.61
2017-05-24T00:09:00.755Z,1010.66
2017-05-24T00:09:41.260Z,1010.63
2017-05-24T00:10:21.752Z,1010.66
2017-05-24T00:11:02.237Z,1010.66
2017-05-24T00:11:42.740Z,1010.68
2017-05-24T00:12:23.224Z,1010.7
2017-05-24T00:13:03.718Z,1010.68
2017-05-24T00:13:44.774Z,1010.68
2017-05-24T00:14:25.276Z,1010.73
2017-05-24T00:15:05.771Z,1010.67
2017-05-24T00:15:46.268Z,1010.73
2017-05-24T00:16:26.752Z,1010.74
2017-05-24T00:17:07.251Z,1010.76
2017-05-24T00:17:47.738Z,1010.76
2017-05-24T00:18:28.919Z,1010.79
2017-05-24T00:19:10.060Z,1010.77
2017-05-24T00:19:50.544Z,1010.76
2017-05-24T00:20:31.046Z,1010.76
2017-05-24T00:21:11.536Z,1010.79
2017-05-24T00:21:52.019Z,1010.78
2017-05-24T00:22:32.508Z,1010.8
2017-05-24T00:23:12.977Z,1010.81
2017-05-24T00:25:06.119Z,1010.81
2017-05-24T00:25:47.521Z,1010.79
2017-05-24T00:26:28.005Z,1010.83
2017-05-24T00:27:09.018Z,1010.82
2017-05-24T00:27:49.507Z,1010.82
2017-05-24T00:28:29.997Z,1010.84
2017-05-24T00:29:10.483Z,1010.83
2017-05-24T00:29:50.979Z,1010.79
2017-05-24T00:30:31.461Z,1010.86
2017-05-24T00:31:11.956Z,1010.88
2017-05-24T00:31:52.439Z,1010.87
2017-05-24T00:32:32.929Z,1010.9
2017-05-24T00:33:13.428Z,1010.93
2017-05-24T00:33:53.920Z,1010.93
2017-05-24T00:34:34.398Z,1010.9
2017-05-24T00:35:14.882Z,1010.88
2017-05-24T00:35:55.385Z,1010.87
2017-05-24T00:36:35.852Z,1010.86
2017-05-24T00:37:16.329Z,1010.9
2017-05-24T00:37:56.844Z,1010.91
2017-05-24T00:38:37.333Z,1010.91
2017-05-24T00:39:17.828Z,1010.89
2017-05-24T00:39:58.325Z,1010.92
2017-05-24T00:40:39.732Z,1010.94
2017-05-24T00:41:20.231Z,1010.94
2017-05-24T00:42:00.722Z,1010.97
2017-05-24T00:42:41.216Z,1010.96
2017-05-24T00:43:21.761Z,1011
2017-05-24T00:44:02.206Z,1010.98
2017-05-24T00:44:42.681Z,1011
2017-05-24T00:45:23.164Z,1011.03
2017-05-24T00:46:03.635Z,1011.03
2017-05-24T00:46:44.136Z,1011
2017-05-24T00:47:24.622Z,1011.04
2017-05-24T00:48:05.117Z,1011.01
2017-05-24T00:48:45.613Z,1011.01
2017-05-24T00:49:26.098Z,1011.04
2017-05-24T00:50:06.587Z,1011.07
2017-05-24T00:50:47.093Z,1011.03
2017-05-24T00:51:27.574Z,1011.04
2017-05-24T00:52:08.831Z,1011.05
2017-05-24T00:52:49.300Z,1011.06
2017-05-24T00:53:29.770Z,1011.04
2017-05-24T00:54:10.263Z,1011.06
2017-05-24T00:54:50.763Z,1011.11
2017-05-24T00:55:31.242Z,1011.08
2017-05-24T00:56:11.719Z,1011.07
2017-05-24T00:56:52.234Z,1011.06
2017-05-24T00:57:32.719Z,1011.07
2017-05-24T00:58:13.200Z,1011.13
2017-05-24T00:58:53.662Z,1011.08
2017-05-24T00:59:34.170Z,1011.11
2017-05-24T01:00:14.654Z,1011.1
2017-05-24T01:00:55.190Z,1011.09
2017-05-24T01:01:35.681Z,1011.04
2017-05-24T01:02:16.189Z,1011.1
2017-05-24T01:02:56.677Z,1011.09
2017-05-24T01:04:54.303Z,1011.11
2017-05-24T01:05:34.754Z,1011.09
2017-05-24T01:06:15.278Z,1011.1
2017-05-24T01:06:55.780Z,1011.11
2017-05-24T01:07:36.245Z,1011.07
2017-05-24T01:08:16.763Z,1011.08
2017-05-24T01:08:57.251Z,1011.09
2017-05-24T01:09:37.745Z,1011.14
2017-05-24T01:10:18.238Z,1011.14
2017-05-24T01:10:58.719Z,1011.15
2017-05-24T01:11:39.217Z,1011.12
2017-05-24T01:12:20.687Z,1011.17
2017-05-24T01:14:13.228Z,1011.18
2017-05-24T01:14:53.730Z,1011.21
2017-05-24T01:15:34.217Z,1011.16
2017-05-24T01:16:14.743Z,1011.2
2017-05-24T01:16:55.235Z,1011.22
2017-05-24T01:17:36.643Z,1011.22
2017-05-24T01:18:17.126Z,1011.22
2017-05-24T01:18:59.427Z,1011.24
2017-05-24T01:19:39.938Z,1011.27
2017-05-24T01:20:20.440Z,1011.27
2017-05-24T01:21:01.810Z,1011.23
2017-05-24T01:21:42.302Z,1011.23
2017-05-24T01:22:22.785Z,1011.23
2017-05-24T01:23:03.279Z,1011.27
2017-05-24T01:23:43.781Z,1011.3
2017-05-24T01:24:24.262Z,1011.28
2017-05-24T01:25:04.750Z,1011.28
2017-05-24T01:25:45.252Z,1011.31
2017-05-24T01:26:25.742Z,1011.29
2017-05-24T01:27:06.213Z,1011.32
2017-05-24T01:27:46.695Z,1011.29
2017-05-24T01:28:27.191Z,1011.3
2017-05-24T01:29:07.676Z,1011.32
2017-05-24T01:29:48.156Z,1011.34
2017-05-24T01:30:28.664Z,1011.36
2017-05-24T01:31:09.160Z,1011.34
2017-05-24T01:31:50.640Z,1011.35
2017-05-24T01:32:31.123Z,1011.38
2017-05-24T01:33:11.626Z,1011.36
2017-05-24T01:33:52.112Z,1011.37
2017-05-24T01:34:32.604Z,1011.36
2017-05-24T01:35:13.101Z,1011.37
2017-05-24T01:35:53.600Z,1011.36
2017-05-24T01:38:11.425Z,1011.37
2017-05-24T01:38:51.912Z,1011.41
2017-05-24T01:39:32.392Z,1011.38
2017-05-24T01:40:12.865Z,1011.4
2017-05-24T01:40:53.346Z,1011.41
2017-05-24T01:41:33.846Z,1011.43
2017-05-24T01:42:14.330Z,1011.43
2017-05-24T01:42:55.705Z,1011.43
2017-05-24T01:43:36.888Z,1011.41
2017-05-24T01:44:17.376Z,1011.47
2017-05-24T01:44:57.877Z,1011.42
2017-05-24T01:45:38.361Z,1011.42
2017-05-24T01:46:18.844Z,1011.45
2017-05-24T01:46:59.358Z,1011.43
2017-05-24T01:47:39.837Z,1011.46
2017-05-24T01:48:20.329Z,1011.45
2017-05-24T01:49:00.818Z,1011.44
2017-05-24T01:49:41.303Z,1011.41
2017-05-24T01:50:21.787Z,1011.45
2017-05-24T01:51:02.315Z,1011.45
2017-05-24T01:51:42.812Z,1011.44
2017-05-24T01:52:23.298Z,1011.42
2017-05-24T01:53:03.801Z,1011.44
2017-05-24T01:53:44.289Z,1011.47
2017-05-24T01:54:24.778Z,1011.43
2017-05-24T01:55:05.303Z,1011.45
2017-05-24T01:55:45.833Z,1011.4
2017-05-24T01:56:26.321Z,1011.41
2017-05-24T01:57:06.799Z,1011.39
2017-05-24T01:57:47.304Z,1011.39
2017-05-24T01:58:29.709Z,1011.42
2017-05-24T01:59:10.208Z,1011.43
2017-05-24T01:59:50.673Z,1011.46
2017-05-24T02:00:31.168Z,1011.42
2017-05-24T02:01:11.651Z,1011.44
2017-05-24T02:01:52.126Z,1011.42
2017-05-24T02:02:32.603Z,1011.44
2017-05-24T02:03:13.112Z,1011.41
2017-05-24T02:03:53.604Z,1011.4
2017-05-24T02:04:34.094Z,1011.39
2017-05-24T02:05:14.604Z,1011.41
2017-05-24T02:05:55.803Z,1011.37
2017-05-24T02:06:36.291Z,1011.36
2017-05-24T02:07:17.471Z,1011.37
2017-05-24T02:09:10.070Z,1011.38
2017-05-24T02:09:50.556Z,1011.37
2017-05-24T02:10:31.044Z,1011.39
2017-05-24T02:11:11.515Z,1011.38
2017-05-24T02:13:04.042Z,1011.35
2017-05-24T02:13:44.514Z,1011.4
2017-05-24T02:14:25.871Z,1011.42
2017-05-24T02:15:06.352Z,1011.41
2017-05-24T02:17:19.077Z,1011.44
2017-05-24T02:17:59.557Z,1011.41
2017-05-24T02:20:12.270Z,1011.43
2017-05-24T02:20:52.744Z,1011.39
2017-05-24T02:21:33.224Z,1011.4
2017-05-24T02:22:13.712Z,1011.38
2017-05-24T02:22:54.205Z,1011.38
2017-05-24T02:23:35.240Z,1011.37
2017-05-24T02:24:15.733Z,1011.42
2017-05-24T02:24:56.981Z,1011.43
2017-05-24T02:25:37.474Z,1011.42
2017-05-24T02:26:17.952Z,1011.42
2017-05-24T02:26:58.451Z,1011.39
2017-05-24T02:27:38.944Z,1011.4
2017-05-24T02:28:19.422Z,1011.38
2017-05-24T02:28:59.931Z,1011.42
2017-05-24T02:29:40.420Z,1011.43
2017-05-24T02:30:20.901Z,1011.43
2017-05-24T02:31:01.390Z,1011.47
2017-05-24T02:31:41.875Z,1011.46
2017-05-24T02:32:23.352Z,1011.48
2017-05-24T02:33:03.845Z,1011.51
2017-05-24T02:33:44.335Z,1011.52
2017-05-24T02:34:24.855Z,1011.48
2017-05-24T02:35:05.334Z,1011.48
2017-05-24T02:35:45.840Z,1011.49
2017-05-24T02:36:26.345Z,1011.49
2017-05-24T02:37:06.817Z,1011.52
2017-05-24T02:37:47.296Z,1011.53
2017-05-24T02:38:27.785Z,1011.55
2017-05-24T02:39:08.984Z,1011.53
2017-05-24T02:39:49.471Z,1011.53
2017-05-24T02:40:29.979Z,1011.51
2017-05-24T02:41:10.460Z,1011.52
2017-05-24T02:41:50.961Z,1011.53
2017-05-24T02:42:31.460Z,1011.53
2017-05-24T02:43:11.942Z,1011.55
2017-05-24T02:43:52.448Z,1011.52
2017-05-24T02:44:32.926Z,1011.55
2017-05-24T02:45:14.271Z,1011.56
2017-05-24T02:45:54.763Z,1011.57
2017-05-24T02:46:35.989Z,1011.56
2017-05-24T02:47:16.474Z,1011.52
2017-05-24T02:47:56.972Z,1011.55
2017-05-24T02:48:37.452Z,1011.55
2017-05-24T02:49:17.954Z,1011.56
2017-05-24T02:49:58.439Z,1011.58
2017-05-24T02:50:38.928Z,1011.59
2017-05-24T02:51:19.425Z,1011.59
2017-05-24T02:51:59.911Z,1011.61
2017-05-24T02:52:40.407Z,1011.59
2017-05-24T02:53:20.877Z,1011.59
2017-05-24T02:54:01.379Z,1011.63
2017-05-24T02:54:41.886Z,1011.63
2017-05-24T02:55:22.371Z,1011.63
2017-05-24T02:56:02.869Z,1011.6
2017-05-24T02:56:43.363Z,1011.63
2017-05-24T02:57:23.843Z,1011.61
2017-05-24T02:58:04.346Z,1011.63
2017-05-24T02:58:44.833Z,1011.61
2017-05-24T02:59:25.323Z,1011.59
2017-05-24T03:00:05.846Z,1011.63
2017-05-24T03:00:46.324Z,1011.61
2017-05-24T03:01:26.815Z,1011.63
2017-05-24T03:02:07.301Z,1011.65
2017-05-24T03:02:47.805Z,1011.66
2017-05-24T03:03:28.292Z,1011.62
2017-05-24T03:04:09.474Z,1011.65
2017-05-24T03:04:49.981Z,1011.61
2017-05-24T03:05:30.487Z,1011.61
2017-05-24T03:06:10.981Z,1011.59
2017-05-24T03:06:51.467Z,1011.59
2017-05-24T03:07:31.946Z,1011.61
2017-05-24T03:08:12.407Z,1011.6
2017-05-24T03:08:52.896Z,1011.58
2017-05-24T03:09:33.394Z,1011.56
2017-05-24T03:10:13.891Z,1011.56
2017-05-24T03:10:54.367Z,1011.59
2017-05-24T03:11:34.862Z,1011.57
2017-05-24T03:12:15.339Z,1011.55
2017-05-24T03:12:55.820Z,1011.55
2017-05-24T03:13:36.313Z,1011.57
2017-05-24T03:14:17.595Z,1011.55
2017-05-24T03:14:58.092Z,1011.51
2017-05-24T03:15:38.576Z,1011.53
2017-05-24T03:16:19.056Z,1011.52
2017-05-24T03:16:59.537Z,1011.55
2017-05-24T03:17:40.026Z,1011.57
2017-05-24T03:18:20.502Z,1011.58
2017-05-24T03:19:00.987Z,1011.54
2017-05-24T03:19:41.457Z,1011.55
2017-05-24T03:20:21.963Z,1011.56
2017-05-24T03:21:02.432Z,1011.59
2017-05-24T03:21:42.917Z,1011.59
2017-05-24T03:22:24.180Z,1011.57
2017-05-24T03:23:04.681Z,1011.62
2017-05-24T03:23:45.167Z,1011.59
2017-05-24T03:24:25.643Z,1011.63
2017-05-24T03:25:06.124Z,1011.6
2017-05-24T03:25:46.623Z,1011.62
2017-05-24T03:26:27.146Z,1011.61
2017-05-24T03:27:07.677Z,1011.63
2017-05-24T03:27:48.169Z,1011.62
2017-05-24T03:28:28.622Z,1011.65
2017-05-24T03:29:09.154Z,1011.61
2017-05-24T03:31:06.773Z,1011.6
2017-05-24T03:31:47.264Z,1011.6
2017-05-24T03:32:27.757Z,1011.59
2017-05-24T03:33:08.237Z,1011.59
2017-05-24T03:33:48.745Z,1011.56
2017-05-24T03:34:29.233Z,1011.58
2017-05-24T03:35:09.707Z,1011.56
2017-05-24T03:35:50.216Z,1011.52
2017-05-24T03:36:30.707Z,1011.53
2017-05-24T03:37:11.190Z,1011.57
2017-05-24T03:37:51.675Z,1011.57
2017-05-24T03:38:32.186Z,1011.56
2017-05-24T03:39:12.666Z,1011.57
2017-05-24T03:39:53.164Z,1011.61
2017-05-24T03:40:34.474Z,1011.55
2017-05-24T03:41:14.963Z,1011.58
2017-05-24T03:41:55.483Z,1011.58
2017-05-24T03:42:35.955Z,1011.57
2017-05-24T03:43:17.079Z,1011.56
2017-05-24T03:43:57.557Z,1011.6
2017-05-24T03:44:38.048Z,1011.56
2017-05-24T03:45:18.529Z,1011.59
2017-05-24T03:45:58.989Z,1011.58
2017-05-24T03:46:39.467Z,1011.56
2017-05-24T03:47:19.962Z,1011.56
2017-05-24T03:48:00.442Z,1011.55
2017-05-24T03:48:40.915Z,1011.57
2017-05-24T03:49:21.454Z,1011.55
2017-05-24T03:50:01.961Z,1011.53
2017-05-24T03:50:42.447Z,1011.54
2017-05-24T03:51:23.478Z,1011.56
2017-05-24T03:52:03.973Z,1011.55
2017-05-24T03:52:44.442Z,1011.56
2017-05-24T03:53:24.927Z,1011.53
2017-05-24T03:54:05.428Z,1011.56
2017-05-24T03:54:45.905Z,1011.59
2017-05-24T03:55:26.397Z,1011.61
2017-05-24T03:56:06.869Z,1011.6
2017-05-24T03:56:47.853Z,1011.61
2017-05-24T03:59:15.801Z,1011.63
2017-05-24T03:59:56.293Z,1011.63
2017-05-24T04:00:36.773Z,1011.61
2017-05-24T04:01:17.263Z,1011.62
2017-05-24T04:01:57.740Z,1011.65
2017-05-24T04:02:38.226Z,1011.65
2017-05-24T04:03:18.704Z,1011.66
2017-05-24T04:03:59.197Z,1011.68
2017-05-24T04:04:39.667Z,1011.72
2017-05-24T04:05:20.862Z,1011.68
2017-05-24T04:06:01.350Z,1011.68
2017-05-24T04:06:41.826Z,1011.69
2017-05-24T04:07:22.325Z,1011.73
2017-05-24T04:08:02.817Z,1011.77
2017-05-24T04:08:44.264Z,1011.78
2017-05-24T04:09:24.759Z,1011.81
2017-05-24T04:10:05.244Z,1011.81
2017-05-24T04:10:45.750Z,1011.85
2017-05-24T04:11:27.003Z,1011.81
2017-05-24T04:12:07.996Z,1011.77
2017-05-24T04:12:48.483Z,1011.81
2017-05-24T04:13:29.761Z,1011.81
2017-05-24T04:14:10.247Z,1011.81
2017-05-24T04:14:50.748Z,1011.84
2017-05-24T04:15:32.875Z,1011.87
2017-05-24T04:16:13.364Z,1011.9
2017-05-24T04:16:53.865Z,1011.92
2017-05-24T04:17:34.357Z,1011.9
2017-05-24T04:18:14.841Z,1011.9
2017-05-24T04:18:55.340Z,1011.89
2017-05-24T04:19:35.837Z,1011.87
2017-05-24T04:20:16.318Z,1011.89
2017-05-24T04:20:56.821Z,1011.88
2017-05-24T04:21:37.315Z,1011.88
2017-05-24T04:22:17.789Z,1011.85
2017-05-24T04:22:58.291Z,1011.89
2017-05-24T04:23:38.788Z,1011.86
2017-05-24T04:24:19.274Z,1011.9
2017-05-24T04:24:59.762Z,1011.92
2017-05-24T04:25:40.260Z,1011.9
2017-05-24T04:26:20.748Z,1011.92
2017-05-24T04:27:01.204Z,1011.91
2017-05-24T04:27:41.705Z,1011.91
2017-05-24T04:28:22.196Z,1011.92
2017-05-24T04:29:02.681Z,1011.96
2017-05-24T04:29:43.152Z,1012
2017-05-24T04:30:23.619Z,1012.02
2017-05-24T04:31:04.050Z,1012.03
2017-05-24T04:31:45.274Z,1012.01
2017-05-24T04:32:25.764Z,1012.03
2017-05-24T04:33:06.242Z,1012.05
2017-05-24T04:33:47.294Z,1012.03
2017-05-24T04:34:28.779Z,1012.02
2017-05-24T04:35:09.265Z,1012.04
2017-05-24T04:35:49.763Z,1012
2017-05-24T04:36:30.257Z,1012.03
2017-05-24T04:37:10.730Z,1012.09
2017-05-24T04:37:51.198Z,1012.07
2017-05-24T04:38:31.746Z,1012.1
2017-05-24T04:40:49.597Z,1012.14
2017-05-24T04:43:07.387Z,1012.19
2017-05-24T04:43:47.942Z,1012.18
2017-05-24T04:44:28.386Z,1012.18
2017-05-24T04:45:08.865Z,1012.13
2017-05-24T04:45:50.117Z,1012.15
2017-05-24T04:46:30.596Z,1012.13
2017-05-24T04:47:11.110Z,1012.13
2017-05-24T04:47:51.593Z,1012.14
2017-05-24T04:48:32.084Z,1012.16
2017-05-24T04:49:12.589Z,1012.18
2017-05-24T04:49:53.073Z,1012.16
2017-05-24T04:50:33.559Z,1012.19
2017-05-24T04:51:14.611Z,1012.16
2017-05-24T04:51:55.088Z,1012.18
2017-05-24T04:52:35.591Z,1012.2
2017-05-24T04:53:16.086Z,1012.19
2017-05-24T04:53:56.563Z,1012.18
2017-05-24T04:54:37.067Z,1012.19
2017-05-24T04:55:17.558Z,1012.17
2017-05-24T04:55:58.039Z,1012.23
2017-05-24T04:56:38.548Z,1012.21
2017-05-24T04:57:19.037Z,1012.22
2017-05-24T04:57:59.513Z,1012.25
2017-05-24T04:58:40.000Z,1012.26
2017-05-24T04:59:20.488Z,1012.31
2017-05-24T05:00:00.963Z,1012.32
2017-05-24T05:00:41.436Z,1012.31
2017-05-24T05:01:21.925Z,1012.29
2017-05-24T05:02:02.443Z,1012.32
2017-05-24T05:02:42.927Z,1012.3
2017-05-24T05:03:23.443Z,1012.28
2017-05-24T05:04:04.484Z,1012.26
2017-05-24T05:04:44.987Z,1012.26
2017-05-24T05:05:25.472Z,1012.25
2017-05-24T05:06:05.981Z,1012.32
2017-05-24T05:06:47.227Z,1012.32
2017-05-24T05:07:27.732Z,1012.33
2017-05-24T05:08:08.223Z,1012.36
2017-05-24T05:08:48.740Z,1012.37
2017-05-24T05:09:29.242Z,1012.37
2017-05-24T05:10:09.719Z,1012.36
2017-05-24T05:10:50.235Z,1012.39
2017-05-24T05:12:47.858Z,1012.45
2017-05-24T05:13:28.364Z,1012.48
2017-05-24T05:14:08.850Z,1012.46
2017-05-24T05:14:49.332Z,1012.53
2017-05-24T05:15:29.833Z,1012.55
2017-05-24T05:16:10.839Z,1012.52
2017-05-24T05:16:51.312Z,1012.56
2017-05-24T05:17:31.810Z,1012.55
2017-05-24T05:18:13.247Z,1012.61
2017-05-24T05:18:53.739Z,1012.6
2017-05-24T05:19:34.254Z,1012.6
2017-05-24T05:20:14.731Z,1012.61
2017-05-24T05:20:55.219Z,1012.57
2017-05-24T05:21:35.733Z,1012.58
2017-05-24T05:22:16.219Z,1012.52
2017-05-24T05:22:56.719Z,1012.49
2017-05-24T05:23:37.237Z,1012.5
2017-05-24T05:24:17.725Z,1012.49
2017-05-24T05:24:58.172Z,1012.52
2017-05-24T05:25:38.672Z,1012.5
2017-05-24T05:26:19.170Z,1012.49
2017-05-24T05:26:59.653Z,1012.51
2017-05-24T05:27:40.165Z,1012.53
2017-05-24T05:28:20.670Z,1012.5
2017-05-24T05:29:01.174Z,1012.52
2017-05-24T05:29:41.662Z,1012.53
2017-05-24T05:30:22.191Z,1012.55
2017-05-24T05:31:02.663Z,1012.54
2017-05-24T05:31:43.163Z,1012.54
2017-05-24T05:32:23.651Z,1012.56
2017-05-24T05:33:04.148Z,1012.58
2017-05-24T05:33:45.569Z,1012.59
2017-05-24T05:34:26.032Z,1012.62
2017-05-24T05:36:23.668Z,1012.64
2017-05-24T05:37:04.166Z,1012.68
2017-05-24T05:37:44.657Z,1012.69
2017-05-24T05:38:25.142Z,1012.69
2017-05-24T05:39:05.632Z,1012.69
2017-05-24T05:39:46.122Z,1012.68
2017-05-24T05:40:26.627Z,1012.69
2017-05-24T05:41:07.128Z,1012.7
2017-05-24T05:41:47.634Z,1012.71
2017-05-24T05:42:28.121Z,1012.73
2017-05-24T05:43:08.615Z,1012.72
2017-05-24T05:43:49.747Z,1012.71
2017-05-24T05:44:30.250Z,1012.73
2017-05-24T05:45:10.749Z,1012.77
2017-05-24T05:45:51.224Z,1012.79
2017-05-24T05:46:31.684Z,1012.78
2017-05-24T05:47:12.167Z,1012.78
2017-05-24T05:47:52.736Z,1012.78
2017-05-24T05:48:33.203Z,1012.8
2017-05-24T05:49:13.653Z,1012.82
2017-05-24T05:49:54.127Z,1012.84
2017-05-24T05:50:35.383Z,1012.83
2017-05-24T05:51:16.001Z,1012.82
2017-05-24T05:53:33.826Z,1012.87
2017-05-24T05:54:14.294Z,1012.86
2017-05-24T05:54:54.768Z,1012.86
2017-05-24T05:55:35.247Z,1012.86
2017-05-24T05:56:15.737Z,1012.83
2017-05-24T05:56:57.248Z,1012.85
2017-05-24T05:57:37.744Z,1012.86
2017-05-24T05:58:18.232Z,1012.89
2017-05-24T05:58:58.722Z,1012.9
2017-05-24T05:59:39.226Z,1012.91
2017-05-24T06:00:19.721Z,1012.94
2017-05-24T06:01:00.247Z,1012.95
2017-05-24T06:01:40.743Z,1012.92
2017-05-24T06:02:22.007Z,1012.92
2017-05-24T06:03:02.491Z,1012.95
2017-05-24T06:03:42.964Z,1012.94
2017-05-24T06:05:55.728Z,1012.94
2017-05-24T06:06:36.251Z,1012.96
2017-05-24T06:08:49.009Z,1012.98
2017-05-24T06:09:29.497Z,1013
2017-05-24T06:10:09.976Z,1013.02
2017-05-24T06:10:50.437Z,1013.04
2017-05-24T06:11:30.922Z,1013.05
2017-05-24T06:12:11.366Z,1013.03
2017-05-24T06:12:51.818Z,1013.03
2017-05-24T06:13:33.095Z,1013.01
2017-05-24T06:14:13.553Z,1013.04
2017-05-24T06:14:54.005Z,1013
2017-05-24T06:16:51.639Z,1013.04
2017-05-24T06:17:32.133Z,1013.04
2017-05-24T06:18:12.650Z,1013.08
2017-05-24T06:18:53.147Z,1013.14
2017-05-24T06:19:34.633Z,1013.15
2017-05-24T06:20:15.138Z,1013.13
2017-05-24T06:20:55.612Z,1013.12
2017-05-24T06:21:36.125Z,1013.19
2017-05-24T06:22:16.666Z,1013.19
2017-05-24T06:22:57.152Z,1013.18
2017-05-24T06:23:37.633Z,1013.2
2017-05-24T06:24:18.143Z,1013.23
2017-05-24T06:24:58.647Z,1013.22
2017-05-24T06:25:39.147Z,1013.25
2017-05-24T06:26:19.627Z,1013.26
2017-05-24T06:27:00.723Z,1013.24
2017-05-24T06:27:41.225Z,1013.21
2017-05-24T06:28:21.711Z,1013.17
2017-05-24T06:30:35.180Z,1013.13
2017-05-24T06:31:15.714Z,1013.13
2017-05-24T06:31:56.164Z,1013.12
2017-05-24T06:32:36.672Z,1013.09
2017-05-24T06:33:17.169Z,1013.15
2017-05-24T06:33:57.663Z,1013.1
2017-05-24T06:34:38.148Z,1013.09
2017-05-24T06:35:18.637Z,1013.07
2017-05-24T06:35:59.138Z,1013.07
2017-05-24T06:36:39.646Z,1013.08
2017-05-24T06:37:20.166Z,1013.1
2017-05-24T06:38:00.640Z,1013.08
2017-05-24T06:38:41.150Z,1013.09
2017-05-24T06:39:21.644Z,1013.12
2017-05-24T06:40:02.876Z,1013.12
2017-05-24T06:40:43.356Z,1013.13
2017-05-24T06:41:23.865Z,1013.09
2017-05-24T06:42:04.377Z,1013.07
2017-05-24T06:42:45.778Z,1013.07
2017-05-24T06:43:26.267Z,1013.08
2017-05-24T06:44:06.777Z,1013.12
2017-05-24T06:44:48.069Z,1013.1
2017-05-24T06:45:28.548Z,1013.08
2017-05-24T06:46:09.115Z,1013.09
2017-05-24T06:46:49.581Z,1013.08
2017-05-24T06:47:30.681Z,1013.09
2017-05-24T06:48:11.167Z,1013.1
2017-05-24T06:48:51.653Z,1013.1
2017-05-24T06:49:32.158Z,1013.12
2017-05-24T06:50:12.664Z,1013.12
2017-05-24T06:50:54.050Z,1013.07
2017-05-24T06:51:34.541Z,1013.09
2017-05-24T06:52:15.785Z,1013.04
2017-05-24T06:52:57.277Z,1013.03
2017-05-24T06:53:37.776Z,1013.02
2017-05-24T06:54:18.896Z,1013.02
2017-05-24T06:54:59.409Z,1012.99
2017-05-24T06:55:39.911Z,1012.99
2017-05-24T06:56:20.435Z,1012.99
2017-05-24T06:57:00.907Z,1012.97
2017-05-24T06:57:41.406Z,1012.98
2017-05-24T06:58:21.913Z,1013.02
2017-05-24T06:59:02.407Z,1013.01
2017-05-24T06:59:42.900Z,1013.01
2017-05-24T07:00:23.399Z,1013.03
2017-05-24T07:01:03.894Z,1013.08
2017-05-24T07:01:45.004Z,1013.1
2017-05-24T07:02:25.446Z,1013.08
2017-05-24T07:03:05.979Z,1013.13
2017-05-24T07:03:46.470Z,1013.18
2017-05-24T07:04:26.956Z,1013.17
2017-05-24T07:05:07.463Z,1013.17
2017-05-24T07:05:47.967Z,1013.18
2017-05-24T07:06:28.501Z,1013.2
2017-05-24T07:07:09.046Z,1013.23
2017-05-24T07:07:49.548Z,1013.18
2017-05-24T07:08:30.066Z,1013.19
2017-05-24T07:09:10.557Z,1013.21
2017-05-24T07:09:51.035Z,1013.21
2017-05-24T07:10:31.533Z,1013.17
2017-05-24T07:11:12.007Z,1013.16
2017-05-24T07:11:53.346Z,1013.15
2017-05-24T07:12:33.843Z,1013.19
2017-05-24T07:13:14.319Z,1013.17
2017-05-24T07:13:54.856Z,1013.19
2017-05-24T07:14:35.364Z,1013.17
2017-05-24T07:15:15.871Z,1013.14
2017-05-24T07:15:56.367Z,1013.16
2017-05-24T07:16:36.860Z,1013.11
2017-05-24T07:17:17.356Z,1013.13
2017-05-24T07:17:57.850Z,1013.14
2017-05-24T07:18:38.337Z,1013.15
2017-05-24T07:19:18.827Z,1013.16
2017-05-24T07:19:59.315Z,1013.16
2017-05-24T07:20:39.812Z,1013.17
2017-05-24T07:21:20.296Z,1013.19
2017-05-24T07:22:00.802Z,1013.17
2017-05-24T07:22:41.322Z,1013.22
2017-05-24T07:23:21.880Z,1013.21
2017-05-24T07:24:02.395Z,1013.19
2017-05-24T07:24:42.896Z,1013.15
2017-05-24T07:25:23.359Z,1013.22
2017-05-24T07:26:03.838Z,1013.2
2017-05-24T07:26:44.299Z,1013.19
2017-05-24T07:27:24.821Z,1013.21
2017-05-24T07:28:05.374Z,1013.16
2017-05-24T07:28:46.475Z,1013.17
2017-05-24T07:29:27.025Z,1013.19
2017-05-24T07:30:07.506Z,1013.16
2017-05-24T07:30:48.049Z,1013.19
2017-05-24T07:31:28.505Z,1013.19
2017-05-24T07:32:09.014Z,1013.24
2017-05-24T07:32:49.582Z,1013.26
2017-05-24T07:33:30.099Z,1013.27
2017-05-24T07:34:10.575Z,1013.32
2017-05-24T07:34:51.082Z,1013.32
2017-05-24T07:35:31.634Z,1013.29
2017-05-24T07:36:12.118Z,1013.29
2017-05-24T07:36:52.670Z,1013.27
2017-05-24T07:37:33.146Z,1013.28
2017-05-24T07:38:13.749Z,1013.25
2017-05-24T07:38:54.242Z,1013.26
2017-05-24T07:39:34.699Z,1013.25
2017-05-24T07:40:15.182Z,1013.26
2017-05-24T07:40:55.691Z,1013.25
2017-05-24T07:41:36.162Z,1013.29
2017-05-24T07:42:16.637Z,1013.26
2017-05-24T07:44:29.377Z,1013.27
2017-05-24T07:45:09.860Z,1013.26
2017-05-24T07:45:50.425Z,1013.27
2017-05-24T07:46:30.876Z,1013.27
2017-05-24T07:47:11.433Z,1013.26
2017-05-24T07:47:51.949Z,1013.27
2017-05-24T07:48:32.457Z,1013.28
2017-05-24T07:49:12.933Z,1013.26
2017-05-24T07:49:53.475Z,1013.23
2017-05-24T07:50:33.999Z,1013.28
2017-05-24T07:51:15.136Z,1013.32
2017-05-24T07:51:55.736Z,1013.29
2017-05-24T07:52:36.280Z,1013.26
2017-05-24T07:53:16.747Z,1013.27
2017-05-24T07:53:57.224Z,1013.27
2017-05-24T07:54:38.424Z,1013.27
2017-05-24T07:55:18.887Z,1013.26
2017-05-24T07:55:59.362Z,1013.25
2017-05-24T07:56:39.902Z,1013.26
2017-05-24T07:57:21.919Z,1013.32
2017-05-24T07:58:02.446Z,1013.38
2017-05-24T07:58:42.951Z,1013.4
2017-05-24T07:59:23.472Z,1013.36
2017-05-24T08:00:04.079Z,1013.4
2017-05-24T08:00:44.756Z,1013.35
2017-05-24T08:01:25.358Z,1013.39
2017-05-24T08:02:05.915Z,1013.38
2017-05-24T08:02:46.538Z,1013.34
2017-05-24T08:03:27.116Z,1013.34
2017-05-24T08:04:07.730Z,1013.39
2017-05-24T08:04:48.352Z,1013.38
2017-05-24T08:05:28.947Z,1013.42
2017-05-24T08:06:10.214Z,1013.41
2017-05-24T08:06:50.823Z,1013.4
2017-05-24T08:07:31.478Z,1013.42
2017-05-24T08:08:12.048Z,1013.39
2017-05-24T08:08:52.673Z,1013.38
2017-05-24T08:09:33.397Z,1013.37
2017-05-24T08:10:13.969Z,1013.34
2017-05-24T08:10:54.537Z,1013.36
2017-05-24T08:11:35.153Z,1013.38
2017-05-24T08:12:15.768Z,1013.38
2017-05-24T08:12:56.344Z,1013.37
2017-05-24T08:13:36.947Z,1013.37
2017-05-24T08:14:18.444Z,1013.4
2017-05-24T08:14:59.036Z,1013.39
2017-05-24T08:15:39.618Z,1013.4
2017-05-24T08:16:20.280Z,1013.42
2017-05-24T08:17:00.923Z,1013.41
2017-05-24T08:17:41.578Z,1013.38
2017-05-24T08:18:22.950Z,1013.4
2017-05-24T08:19:03.566Z,1013.38
2017-05-24T08:19:44.137Z,1013.4
2017-05-24T08:20:24.743Z,1013.39
2017-05-24T08:21:05.802Z,1013.43
2017-05-24T08:21:46.387Z,1013.4
2017-05-24T08:22:26.953Z,1013.42
2017-05-24T08:23:07.588Z,1013.43
2017-05-24T08:23:48.259Z,1013.42
2017-05-24T08:24:28.922Z,1013.44
2017-05-24T08:25:10.510Z,1013.42
2017-05-24T08:25:51.101Z,1013.46
2017-05-24T08:26:31.752Z,1013.43
2017-05-24T08:27:12.400Z,1013.44
2017-05-24T08:27:52.961Z,1013.45
2017-05-24T08:28:33.554Z,1013.44
2017-05-24T08:29:14.153Z,1013.4
2017-05-24T08:29:54.651Z,1013.4
2017-05-24T08:30:35.173Z,1013.41
2017-05-24T08:31:16.177Z,1013.42
2017-05-24T08:31:56.667Z,1013.41
2017-05-24T08:32:37.218Z,1013.39
2017-05-24T08:33:18.583Z,1013.36
2017-05-24T08:33:59.099Z,1013.39
2017-05-24T08:34:39.589Z,1013.31
2017-05-24T08:35:20.106Z,1013.33
2017-05-24T08:36:00.636Z,1013.38
2017-05-24T08:36:41.948Z,1013.36
2017-05-24T08:37:22.486Z,1013.38
2017-05-24T08:38:03.040Z,1013.38
2017-05-24T08:38:43.559Z,1013.44
2017-05-24T08:39:24.093Z,1013.45
2017-05-24T08:40:04.601Z,1013.38
2017-05-24T08:40:45.669Z,1013.38
2017-05-24T08:41:26.138Z,1013.44